Time;durP1;ratioP1;P1;durP2;ratioP2;P2;SDS_P1;SDS_P2;PMS_P1;PMS_P2;Temp;Humidity;BMP_temperature;BMP_pressure;BME280_temperature;BME280_humidity;BME280_pressure;Samples;Min_cycle;Max_cycle;Signal;HPM_P1;HPM_P2
2022/06/11 00:00:43;;;;;;;7.30;2.43;;;14.50;99.90;;;;;;5073412;28;20204;-59
2022/06/11 00:03:11;;;;;;;5.33;2.30;;;14.50;99.90;;;;;;5073695;28;20201;-59
2022/06/11 00:05:38;;;;;;;4.57;2.30;;;14.50;99.90;;;;;;5074105;28;20240;-59
2022/06/11 00:08:05;;;;;;;5.77;2.40;;;14.40;99.90;;;;;;5073922;28;20243;-59
2022/06/11 00:10:33;;;;;;;6.73;2.57;;;14.40;99.90;;;;;;5073432;28;20585;-58
2022/06/11 00:13:00;;;;;;;4.73;2.30;;;14.40;99.90;;;;;;5073881;28;20231;-58
2022/06/11 00:15:27;;;;;;;3.47;2.40;;;14.40;99.90;;;;;;5074416;28;20228;-59
2022/06/11 00:17:56;;;;;;;3.30;2.20;;;14.50;99.90;;;;;;5073723;28;20649;-59
2022/06/11 00:20:23;;;;;;;3.80;2.27;;;14.50;99.90;;;;;;5073405;28;20205;-59
2022/06/11 00:22:51;;;;;;;4.43;2.20;;;14.50;99.90;;;;;;5073844;28;20213;-59
2022/06/11 00:25:19;;;;;;;2.90;2.20;;;14.50;99.90;;;;;;5073937;28;20216;-59
2022/06/11 00:27:48;;;;;;;4.53;2.10;;;14.60;99.90;;;;;;5073577;28;20224;-59
2022/06/11 00:30:15;;;;;;;2.87;1.87;;;14.60;99.90;;;;;;5073321;28;20209;-59
2022/06/11 00:32:42;;;;;;;4.53;2.43;;;14.50;99.90;;;;;;5073216;28;20704;-59
2022/06/11 00:35:10;;;;;;;5.47;2.47;;;14.50;99.90;;;;;;5073327;28;20201;-58
2022/06/11 00:37:37;;;;;;;6.87;3.73;;;14.50;99.90;;;;;;5073485;28;20815;-59
2022/06/11 00:40:06;;;;;;;3.27;2.20;;;14.50;99.90;;;;;;5073290;28;20583;-59
2022/06/11 00:42:35;;;;;;;4.13;2.47;;;14.50;99.90;;;;;;5073755;28;20205;-59
2022/06/11 00:45:26;;;;;;;5.43;2.27;;;14.50;99.90;;;;;;5073527;28;20209;-59
2022/06/11 00:47:58;;;;;;;3.53;2.10;;;14.40;99.90;;;;;;5073655;28;20209;-58
2022/06/11 00:50:29;;;;;;;3.93;2.40;;;14.40;99.90;;;;;;5073396;28;20220;-58
2022/06/11 00:52:58;;;;;;;3.90;2.00;;;14.30;99.90;;;;;;5072671;28;20605;-58
2022/06/11 00:55:29;;;;;;;5.13;1.97;;;14.30;99.90;;;;;;5073032;28;20201;-58
2022/06/11 00:58:00;;;;;;;3.67;2.50;;;14.30;99.90;;;;;;5073146;28;20240;-59
2022/06/11 01:00:31;;;;;;;4.50;2.20;;;14.30;99.90;;;;;;5072842;28;20204;-59
2022/06/11 01:02:59;;;;;;;6.10;2.20;;;14.30;99.90;;;;;;5072686;28;20582;-58
2022/06/11 01:05:29;;;;;;;3.83;2.07;;;14.30;99.90;;;;;;5072244;28;20229;-58
2022/06/11 01:08:36;;;;;;;3.27;2.20;;;14.30;99.90;;;;;;5072510;28;20208;-58
2022/06/11 01:11:30;;;;;;;3.37;2.50;;;14.30;99.90;;;;;;5072401;28;20333;-58
2022/06/11 01:14:11;;;;;;;7.60;2.80;;;14.30;99.90;;;;;;5072482;28;20235;-58
2022/06/11 01:16:51;;;;;;;4.67;2.40;;;14.20;99.90;;;;;;5072363;28;20278;-58
2022/06/11 01:19:41;;;;;;;3.93;2.10;;;14.20;99.90;;;;;;5073140;28;20212;-58
2022/06/11 01:22:19;;;;;;;5.27;2.57;;;14.20;99.90;;;;;;5072588;28;20590;-58
2022/06/11 01:24:57;;;;;;;2.80;2.23;;;14.20;99.90;;;;;;5072339;28;20205;-59
2022/06/11 01:27:44;;;;;;;4.90;2.70;;;14.20;99.90;;;;;;5072050;28;20232;-59
2022/06/11 01:30:15;;;;;;;3.40;2.20;;;14.20;99.90;;;;;;5071767;28;20673;-58
2022/06/11 01:32:49;;;;;;;3.03;1.97;;;14.10;99.90;;;;;;5072154;28;20622;-58
2022/06/11 01:35:24;;;;;;;2.87;2.07;;;14.00;99.90;;;;;;5072029;28;20220;-58
2022/06/11 01:37:54;;;;;;;4.13;2.53;;;13.90;99.90;;;;;;5072718;28;20258;-58
2022/06/11 01:40:35;;;;;;;4.63;1.97;;;13.90;99.90;;;;;;5071767;28;20208;-58
2022/06/11 01:43:11;;;;;;;4.63;2.60;;;14.00;99.90;;;;;;5071965;28;20694;-58
2022/06/11 01:45:40;;;;;;;7.73;2.73;;;14.20;99.90;;;;;;5071923;28;20228;-58
2022/06/11 01:48:13;;;;;;;3.57;2.53;;;14.30;99.90;;;;;;5071838;28;20211;-58
2022/06/11 01:50:45;;;;;;;4.17;2.30;;;14.30;99.90;;;;;;5071875;28;20211;-59
2022/06/11 01:53:37;;;;;;;4.90;2.60;;;14.40;99.90;;;;;;5071826;28;20728;-59
2022/06/11 01:56:21;;;;;;;3.27;2.67;;;14.40;99.90;;;;;;5071681;28;20600;-58
2022/06/11 01:59:10;;;;;;;4.40;2.40;;;14.40;99.90;;;;;;5072224;28;20224;-58
2022/06/11 02:01:52;;;;;;;4.70;2.60;;;14.40;99.90;;;;;;5071769;28;20208;-59
2022/06/11 02:04:27;;;;;;;4.60;2.40;;;14.50;99.90;;;;;;5074098;28;20584;-58
2022/06/11 02:07:02;;;;;;;6.33;2.40;;;14.50;99.90;;;;;;5075724;28;20228;-59
2022/06/11 02:09:34;;;;;;;4.50;2.60;;;14.50;99.90;;;;;;5075834;28;20223;-58
2022/06/11 02:12:09;;;;;;;4.40;2.30;;;14.50;99.90;;;;;;5075657;28;20205;-58
2022/06/11 02:14:44;;;;;;;3.23;2.47;;;14.50;99.90;;;;;;5075552;28;20228;-58
2022/06/11 02:17:17;;;;;;;4.13;2.50;;;14.50;99.90;;;;;;5075377;28;20250;-59
2022/06/11 02:19:49;;;;;;;5.60;2.50;;;14.40;99.90;;;;;;5075470;28;20207;-58
2022/06/11 02:22:21;;;;;;;2.93;2.20;;;14.40;99.90;;;;;;5075438;28;20215;-59
2022/06/11 02:24:52;;;;;;;6.03;2.20;;;14.30;99.90;;;;;;5075301;28;20205;-58
2022/06/11 02:27:24;;;;;;;4.80;2.57;;;14.20;99.90;;;;;;5075129;28;20597;-58
2022/06/11 02:29:53;;;;;;;3.93;2.30;;;14.20;99.90;;;;;;5074930;28;20213;-58
2022/06/11 02:32:24;;;;;;;5.87;2.40;;;14.30;99.90;;;;;;5074935;28;20204;-58
2022/06/11 02:34:54;;;;;;;6.63;2.70;;;14.20;99.90;;;;;;5075034;28;20225;-58
2022/06/11 02:37:24;;;;;;;5.10;2.53;;;14.20;99.90;;;;;;5075013;28;20220;-58
2022/06/11 02:39:53;;;;;;;2.90;2.30;;;14.20;99.90;;;;;;5074887;28;20216;-58
2022/06/11 02:42:22;;;;;;;3.67;2.67;;;14.20;99.90;;;;;;5074834;28;20215;-58
2022/06/11 02:44:49;;;;;;;3.90;2.60;;;14.30;99.90;;;;;;5075062;28;20208;-57
2022/06/11 02:47:18;;;;;;;5.47;2.43;;;14.30;99.90;;;;;;5074902;28;20229;-57
2022/06/11 02:49:47;;;;;;;3.60;2.40;;;14.30;99.90;;;;;;5074611;28;20734;-58
2022/06/11 02:52:17;;;;;;;5.50;2.40;;;14.30;99.90;;;;;;5074530;28;20204;-58
2022/06/11 02:54:45;;;;;;;4.90;2.80;;;14.30;99.90;;;;;;5074554;28;20247;-58
2022/06/11 02:57:14;;;;;;;5.20;2.60;;;14.30;99.90;;;;;;5074765;28;20597;-58
2022/06/11 02:59:42;;;;;;;7.57;2.87;;;14.30;99.90;;;;;;5074993;28;20237;-58
2022/06/11 03:02:10;;;;;;;3.07;2.10;;;14.30;99.90;;;;;;5074728;28;20212;-59
2022/06/11 03:04:37;;;;;;;3.73;2.40;;;14.30;99.90;;;;;;5075054;28;20201;-58
2022/06/11 03:07:08;;;;;;;3.83;2.30;;;14.20;99.90;;;;;;5075161;28;20244;-58
2022/06/11 03:09:36;;;;;;;4.83;2.63;;;14.20;99.90;;;;;;5074344;28;20205;-58
2022/06/11 03:12:04;;;;;;;5.50;2.63;;;14.30;99.90;;;;;;5074459;28;20209;-58
2022/06/11 03:14:31;;;;;;;4.03;2.43;;;14.30;99.90;;;;;;5074199;28;20221;-59
2022/06/11 03:16:57;;;;;;;4.47;2.80;;;14.30;99.90;;;;;;5074064;28;20224;-58
2022/06/11 03:19:24;;;;;;;3.57;2.73;;;14.30;99.90;;;;;;5074727;28;20592;-58
2022/06/11 03:21:53;;;;;;;5.77;3.07;;;14.30;99.90;;;;;;5074290;28;20209;-58
2022/06/11 03:24:22;;;;;;;4.80;2.50;;;14.30;99.90;;;;;;5074564;28;20201;-58
2022/06/11 03:26:50;;;;;;;6.97;2.70;;;14.20;99.90;;;;;;5074499;28;20225;-58
2022/06/11 03:29:17;;;;;;;4.73;2.40;;;14.20;99.90;;;;;;5074666;28;20213;-58
2022/06/11 03:31:45;;;;;;;2.97;2.43;;;14.20;99.90;;;;;;5074142;28;20211;-58
2022/06/11 03:34:12;;;;;;;6.17;2.70;;;14.30;99.90;;;;;;5074125;28;20216;-58
2022/06/11 03:36:40;;;;;;;4.03;2.73;;;14.30;99.90;;;;;;5073760;28;20611;-58
2022/06/11 03:39:08;;;;;;;5.00;2.87;;;14.30;99.90;;;;;;5073993;28;20631;-58
2022/06/11 03:41:36;;;;;;;2.77;2.30;;;14.30;99.90;;;;;;5073730;28;20205;-58
2022/06/11 03:44:03;;;;;;;3.43;2.30;;;14.30;99.90;;;;;;5073637;28;20205;-58
2022/06/11 03:46:30;;;;;;;2.80;2.50;;;14.40;99.90;;;;;;5073445;28;20709;-58
2022/06/11 03:48:57;;;;;;;4.93;2.43;;;14.40;99.90;;;;;;5073514;28;20208;-58
2022/06/11 03:51:24;;;;;;;2.80;2.47;;;14.50;99.90;;;;;;5073450;28;20205;-58
2022/06/11 03:53:51;;;;;;;4.63;2.50;;;14.50;99.90;;;;;;5073490;28;20221;-58
2022/06/11 03:56:19;;;;;;;5.07;2.83;;;14.60;99.90;;;;;;5073471;28;20220;-58
2022/06/11 03:58:50;;;;;;;3.13;2.30;;;14.70;99.90;;;;;;5073389;28;20213;-58
2022/06/11 04:01:18;;;;;;;5.83;2.93;;;14.70;99.90;;;;;;5073216;28;20244;-58
2022/06/11 04:03:47;;;;;;;3.97;2.73;;;14.80;99.90;;;;;;5073492;28;20284;-58
2022/06/11 04:06:15;;;;;;;5.50;2.57;;;14.80;99.90;;;;;;5072990;28;20659;-58
2022/06/11 04:08:43;;;;;;;3.17;2.40;;;14.80;99.90;;;;;;5073153;28;20201;-58
2022/06/11 04:11:10;;;;;;;3.80;2.40;;;14.90;99.90;;;;;;5072870;28;20208;-59
2022/06/11 04:13:39;;;;;;;4.50;2.60;;;15.00;99.90;;;;;;5073114;28;20221;-58
2022/06/11 04:16:15;;;;;;;5.20;2.30;;;15.10;99.90;;;;;;5072687;28;20236;-58
2022/06/11 04:18:44;;;;;;;3.73;2.50;;;15.20;99.90;;;;;;5073053;28;20648;-58
2022/06/11 04:21:13;;;;;;;3.07;2.20;;;15.20;99.90;;;;;;5072738;28;20240;-58
2022/06/11 04:23:43;;;;;;;5.03;2.60;;;15.30;99.90;;;;;;5073067;28;20626;-58
2022/06/11 04:26:13;;;;;;;4.03;2.50;;;15.30;99.90;;;;;;5072747;28;20232;-58
2022/06/11 04:28:40;;;;;;;4.70;2.27;;;15.40;99.90;;;;;;5072721;28;20220;-59
2022/06/11 04:31:09;;;;;;;4.03;2.30;;;15.50;99.90;;;;;;5072576;28;20716;-59
2022/06/11 04:33:37;;;;;;;2.60;2.37;;;15.60;99.90;;;;;;5072724;28;20246;-59
2022/06/11 04:36:06;;;;;;;6.43;2.37;;;15.70;99.90;;;;;;5072765;28;20233;-58
2022/06/11 04:38:33;;;;;;;4.00;2.47;;;15.80;99.90;;;;;;5072732;28;20220;-59
2022/06/11 04:41:00;;;;;;;3.23;2.30;;;15.90;99.90;;;;;;5072312;28;20622;-58
2022/06/11 04:43:27;;;;;;;6.07;2.50;;;16.00;99.90;;;;;;5072668;28;20213;-58
2022/06/11 04:45:53;;;;;;;3.77;2.53;;;16.30;99.90;;;;;;5072735;28;20233;-58
2022/06/11 04:48:21;;;;;;;3.25;2.10;;;16.90;99.90;;;;;;5072729;28;20201;-58
2022/06/11 04:50:48;;;;;;;3.83;1.85;;;18.10;99.90;;;;;;5072823;28;20205;-59
2022/06/11 04:53:15;;;;;;;2.55;1.92;;;19.80;99.90;;;;;;5073091;28;20806;-59
2022/06/11 04:55:42;;;;;;;3.75;2.28;;;21.50;99.90;;;;;;5073070;28;20232;-59
2022/06/11 04:58:09;;;;;;;4.95;2.28;;;23.00;99.90;;;;;;5073070;28;20205;-59
2022/06/11 05:00:36;;;;;;;3.97;1.63;;;24.50;99.90;;;;;;5072537;28;20205;-59
2022/06/11 05:03:03;;;;;;;2.15;1.70;;;25.70;99.90;;;;;;5072661;28;20695;-59
2022/06/11 05:05:32;;;;;;;2.97;1.60;;;26.70;98.80;;;;;;5072441;28;20251;-59
2022/06/11 05:08:00;;;;;;;3.70;1.60;;;27.50;95.90;;;;;;5072962;28;20209;-58
2022/06/11 05:10:29;;;;;;;3.08;1.63;;;28.30;93.00;;;;;;5072073;28;20209;-59
2022/06/11 05:12:56;;;;;;;3.03;1.65;;;29.10;90.50;;;;;;5072524;28;20215;-58
2022/06/11 05:15:23;;;;;;;3.20;1.30;;;30.00;84.90;;;;;;5072275;28;20225;-59
2022/06/11 05:17:50;;;;;;;8.13;2.13;;;30.50;80.70;;;;;;5072362;28;20201;-59
2022/06/11 05:20:18;;;;;;;5.22;1.63;;;30.70;77.60;;;;;;5072238;28;20204;-59
2022/06/11 05:22:47;;;;;;;2.22;1.35;;;30.90;75.20;;;;;;5071925;28;20228;-58
2022/06/11 05:25:16;;;;;;;2.17;1.38;;;31.20;73.40;;;;;;5071955;28;20700;-59
2022/06/11 05:27:44;;;;;;;4.20;1.58;;;31.50;71.10;;;;;;5072231;28;20557;-58
2022/06/11 05:30:21;;;;;;;4.15;1.55;;;31.90;69.00;;;;;;5072027;28;20200;-59
2022/06/11 05:32:49;;;;;;;3.13;1.55;;;32.30;66.80;;;;;;5071973;28;20223;-58
2022/06/11 05:35:19;;;;;;;3.10;1.48;;;32.50;64.90;;;;;;5071790;28;20231;-58
2022/06/11 05:37:49;;;;;;;4.50;1.75;;;32.90;63.10;;;;;;5072243;28;20362;-59
2022/06/11 05:40:18;;;;;;;3.72;1.33;;;33.40;61.60;;;;;;5076092;28;20213;-58
2022/06/11 05:42:47;;;;;;;3.00;1.40;;;33.80;60.00;;;;;;5075921;28;20213;-59
2022/06/11 05:45:15;;;;;;;2.65;1.35;;;34.40;58.00;;;;;;5075947;28;20211;-58
2022/06/11 05:47:43;;;;;;;2.70;1.45;;;34.70;56.90;;;;;;5075879;28;20207;-59
2022/06/11 05:50:14;;;;;;;3.17;1.35;;;34.90;56.00;;;;;;5076200;28;20540;-59
2022/06/11 05:52:45;;;;;;;3.70;1.23;;;34.90;55.70;;;;;;5075758;28;20212;-59
2022/06/11 05:55:15;;;;;;;2.60;1.60;;;35.10;55.10;;;;;;5075845;28;20225;-59
2022/06/11 05:57:44;;;;;;;4.60;1.42;;;35.40;54.10;;;;;;5075766;28;20204;-59
2022/06/11 06:00:16;;;;;;;2.67;1.33;;;35.50;53.50;;;;;;5075668;28;20216;-59
2022/06/11 06:02:44;;;;;;;4.68;1.58;;;35.80;53.20;;;;;;5075771;28;20208;-59
2022/06/11 06:05:13;;;;;;;4.03;1.67;;;36.20;52.20;;;;;;5075329;28;20197;-59
2022/06/11 06:07:40;;;;;;;3.25;1.50;;;36.50;51.40;;;;;;5075694;28;20669;-59
2022/06/11 06:10:08;;;;;;;3.63;1.40;;;36.90;50.70;;;;;;5075448;28;20638;-59
2022/06/11 06:12:37;;;;;;;2.08;1.20;;;37.30;49.50;;;;;;5075218;28;20205;-59
2022/06/11 06:15:06;;;;;;;2.67;1.50;;;37.80;49.00;;;;;;5058523;28;20226;-58
2022/06/11 06:17:32;;;;;;;2.35;1.30;;;38.40;47.60;;;;;;5072746;28;20204;-58
2022/06/11 06:19:59;;;;;;;2.13;1.50;;;38.80;46.50;;;;;;5074457;28;20308;-61
2022/06/11 06:22:26;;;;;;;3.53;1.92;;;38.90;45.90;;;;;;5073845;28;20209;-61
2022/06/11 06:24:53;;;;;;;2.83;1.42;;;38.80;46.40;;;;;;5074027;28;20579;-64
2022/06/11 06:27:20;;;;;;;3.60;1.50;;;39.20;45.30;;;;;;5075079;28;20273;-59
2022/06/11 06:29:48;;;;;;;2.03;1.42;;;39.90;44.80;;;;;;5075047;28;20208;-58
2022/06/11 06:32:15;;;;;;;2.47;1.27;;;39.90;44.10;;;;;;5075013;28;20212;-59
2022/06/11 06:34:41;;;;;;;2.47;1.10;;;40.00;44.30;;;;;;5075066;28;20667;-58
2022/06/11 06:37:09;;;;;;;4.13;1.40;;;40.80;42.50;;;;;;5074942;28;20224;-58
2022/06/11 06:39:36;;;;;;;3.08;1.23;;;40.60;43.50;;;;;;5075050;28;20240;-59
2022/06/11 06:42:03;;;;;;;2.80;1.23;;;40.30;43.10;;;;;;5075047;28;20204;-58
2022/06/11 06:44:29;;;;;;;2.50;1.60;;;39.50;44.30;;;;;;5075027;28;20208;-58
2022/06/11 06:46:57;;;;;;;2.70;1.70;;;39.30;44.60;;;;;;5074987;28;20235;-58
2022/06/11 06:49:24;;;;;;;2.35;1.30;;;40.30;43.70;;;;;;5074660;28;20200;-59
2022/06/11 06:51:51;;;;;;;2.75;1.33;;;40.50;43.10;;;;;;5073742;28;20669;-59
2022/06/11 06:54:18;;;;;;;3.17;2.53;;;41.10;41.60;;;;;;5074624;28;20228;-59
2022/06/11 06:56:45;;;;;;;3.10;1.50;;;41.50;41.30;;;;;;5074884;28;20228;-59
2022/06/11 06:59:13;;;;;;;4.82;2.28;;;42.20;40.10;;;;;;5074872;28;20220;-59
2022/06/11 07:01:40;;;;;;;2.60;1.55;;;42.80;39.70;;;;;;5074530;28;20208;-60
2022/06/11 07:04:08;;;;;;;2.53;1.42;;;42.80;39.60;;;;;;5074629;28;20207;-58
2022/06/11 07:06:37;;;;;;;1.73;1.13;;;43.30;38.90;;;;;;5074184;28;20243;-59
2022/06/11 07:09:04;;;;;;;2.40;1.33;;;44.00;37.80;;;;;;5074374;28;20660;-59
2022/06/11 07:11:31;;;;;;;1.55;1.17;;;44.30;36.90;;;;;;5074384;28;20228;-59
2022/06/11 07:13:58;;;;;;;4.80;1.67;;;44.60;37.10;;;;;;5074469;28;20211;-59
2022/06/11 07:16:32;;;;;;;3.55;1.83;;;45.10;36.40;;;;;;5074410;28;20224;-59
2022/06/11 07:19:02;;;;;;;2.53;1.00;;;45.50;34.40;;;;;;5074405;28;20645;-59
2022/06/11 07:21:35;;;;;;;2.88;1.23;;;45.80;33.50;;;;;;5073861;28;20208;-59
2022/06/11 07:24:06;;;;;;;4.05;1.25;;;45.90;33.60;;;;;;5074434;28;20222;-59
2022/06/11 07:26:36;;;;;;;2.20;1.27;;;46.30;33.20;;;;;;5074380;28;20224;-59
2022/06/11 07:29:09;;;;;;;3.20;1.50;;;47.00;31.70;;;;;;5074285;28;20208;-59
2022/06/11 07:31:36;;;;;;;2.22;1.08;;;47.00;32.10;;;;;;5073698;28;20215;-59
2022/06/11 07:34:02;;;;;;;2.53;1.23;;;46.70;32.00;;;;;;5074139;28;20256;-58
2022/06/11 07:36:31;;;;;;;2.50;1.02;;;47.30;32.00;;;;;;5074445;28;20277;-59
2022/06/11 07:38:58;;;;;;;2.85;1.10;;;47.90;31.50;;;;;;5073956;28;20208;-59
2022/06/11 07:41:25;;;;;;;2.38;1.30;;;48.50;31.00;;;;;;5073920;28;20209;-59
2022/06/11 07:43:52;;;;;;;3.13;1.00;;;48.60;31.50;;;;;;5074027;28;20696;-58
2022/06/11 07:46:19;;;;;;;2.67;1.30;;;48.60;30.50;;;;;;5073739;28;20231;-58
2022/06/11 07:48:46;;;;;;;1.77;1.23;;;48.40;30.60;;;;;;5074086;28;20212;-58
2022/06/11 07:51:13;;;;;;;2.42;1.38;;;48.10;30.80;;;;;;5074179;28;20584;-59
2022/06/11 07:53:41;;;;;;;3.45;1.20;;;47.70;30.90;;;;;;5074081;28;20208;-60
2022/06/11 07:56:08;;;;;;;3.10;1.20;;;47.50;30.40;;;;;;5073762;28;20236;-59
2022/06/11 07:58:34;;;;;;;2.00;1.08;;;47.30;31.00;;;;;;5073751;28;20216;-60
2022/06/11 08:01:01;;;;;;;3.40;1.40;;;47.30;31.10;;;;;;5073316;28;20204;-60
2022/06/11 08:03:28;;;;;;;2.20;1.25;;;47.30;31.10;;;;;;5073546;28;20208;-59
2022/06/11 08:05:56;;;;;;;3.58;1.30;;;46.70;31.70;;;;;;5073589;28;20674;-60
2022/06/11 08:08:24;;;;;;;2.88;1.17;;;46.50;31.40;;;;;;5073319;28;20200;-61
2022/06/11 08:10:52;;;;;;;5.25;1.20;;;46.00;31.80;;;;;;5073341;28;20204;-60
2022/06/11 08:13:19;;;;;;;2.08;1.30;;;45.50;32.50;;;;;;5073605;28;20211;-58
2022/06/11 08:15:49;;;;;;;2.70;1.13;;;44.80;33.00;;;;;;5073474;28;20228;-59
2022/06/11 08:18:16;;;;;;;2.20;1.10;;;43.60;33.60;;;;;;5074171;28;20204;-59
2022/06/11 08:20:43;;;;;;;2.78;1.25;;;43.40;34.30;;;;;;5073432;28;20209;-59
2022/06/11 08:23:10;;;;;;;2.20;1.25;;;43.40;34.40;;;;;;5074171;28;20208;-58
2022/06/11 08:25:38;;;;;;;4.03;1.42;;;43.30;34.30;;;;;;5073959;28;20614;-59
2022/06/11 08:28:07;;;;;;;2.35;1.30;;;43.10;33.90;;;;;;5073581;28;20208;-59
2022/06/11 08:30:35;;;;;;;2.60;1.25;;;43.10;33.60;;;;;;5073402;28;20204;-59
2022/06/11 08:33:02;;;;;;;3.95;1.40;;;43.20;33.30;;;;;;5073188;28;20205;-59
2022/06/11 08:35:33;;;;;;;3.95;1.17;;;43.30;33.50;;;;;;5073198;28;20277;-59
2022/06/11 08:38:00;;;;;;;2.28;1.20;;;43.70;32.40;;;;;;5073330;28;20215;-59
2022/06/11 08:40:30;;;;;;;2.88;1.17;;;44.00;32.50;;;;;;5072908;28;20602;-59
2022/06/11 08:43:00;;;;;;;3.45;1.30;;;44.10;32.40;;;;;;5073599;28;20208;-59
2022/06/11 08:45:37;;;;;;;2.78;1.27;;;44.10;32.00;;;;;;5073675;28;20216;-59
2022/06/11 08:48:14;;;;;;;2.95;1.10;;;43.40;32.40;;;;;;5073824;28;20208;-59
2022/06/11 08:50:47;;;;;;;2.33;1.20;;;41.40;33.50;;;;;;5073675;28;20209;-58
2022/06/11 08:53:14;;;;;;;6.22;1.40;;;40.20;35.70;;;;;;5073269;28;20209;-59
2022/06/11 08:55:41;;;;;;;1.85;1.20;;;38.10;38.20;;;;;;5073013;28;20260;-58
2022/06/11 08:58:21;;;;;;;2.08;1.23;;;36.20;40.90;;;;;;5074003;28;20555;-58
2022/06/11 09:00:55;;;;;;;2.58;1.50;;;34.90;42.40;;;;;;5074474;28;20205;-58
2022/06/11 09:03:40;;;;;;;5.38;2.03;;;33.40;44.10;;;;;;5074117;28;20204;-59
2022/06/11 09:06:38;;;;;;;4.43;1.58;;;32.40;45.90;;;;;;5075049;28;20263;-59
2022/06/11 09:09:11;;;;;;;7.00;2.00;;;31.20;47.10;;;;;;5073445;28;20208;-59
2022/06/11 09:11:50;;;;;;;3.88;1.77;;;30.50;49.00;;;;;;5073355;28;20676;-59
2022/06/11 09:14:44;;;;;;;3.72;1.45;;;30.10;49.90;;;;;;5072484;28;20237;-59
2022/06/11 09:17:27;;;;;;;3.67;1.30;;;29.80;50.90;;;;;;5073644;28;20227;-59
2022/06/11 09:20:07;;;;;;;3.17;1.50;;;28.90;50.90;;;;;;5073323;28;20209;-61
2022/06/11 09:22:47;;;;;;;1.80;1.38;;;28.20;52.90;;;;;;5073244;28;20209;-58
2022/06/11 09:25:32;;;;;;;5.57;1.65;;;27.60;53.60;;;;;;5072761;28;20208;-57
2022/06/11 09:28:08;;;;;;;2.90;1.40;;;27.40;56.00;;;;;;5073195;28;20216;-58
2022/06/11 09:30:40;;;;;;;3.15;1.38;;;27.40;55.60;;;;;;5072514;28;20204;-57
2022/06/11 09:33:17;;;;;;;2.85;1.33;;;27.40;54.30;;;;;;5072369;28;20213;-57
2022/06/11 09:35:50;;;;;;;4.88;1.55;;;27.40;54.90;;;;;;5072264;28;20237;-59
2022/06/11 09:38:29;;;;;;;2.47;1.30;;;27.40;54.50;;;;;;5072633;28;20209;-58
2022/06/11 09:41:05;;;;;;;4.35;1.58;;;27.40;53.50;;;;;;5072231;28;20673;-58
2022/06/11 09:43:42;;;;;;;2.40;1.30;;;27.20;56.00;;;;;;5072200;28;20227;-58
2022/06/11 09:46:15;;;;;;;4.55;1.70;;;27.00;56.80;;;;;;5072475;28;20231;-58
2022/06/11 09:49:00;;;;;;;5.28;1.92;;;27.10;57.60;;;;;;5072466;28;20270;-58
2022/06/11 09:51:36;;;;;;;3.17;2.30;;;27.10;58.20;;;;;;5071942;28;20591;-58
2022/06/11 09:54:15;;;;;;;3.80;1.52;;;26.90;58.60;;;;;;5072031;28;20669;-58
2022/06/11 09:56:50;;;;;;;4.70;1.83;;;26.60;58.50;;;;;;5072073;28;20232;-58
2022/06/11 09:59:28;;;;;;;4.72;1.63;;;26.60;59.10;;;;;;5072114;28;20211;-58
2022/06/11 10:02:02;;;;;;;5.13;1.70;;;26.50;60.00;;;;;;5071987;28;20209;-58
2022/06/11 10:04:34;;;;;;;7.30;1.88;;;26.50;60.10;;;;;;5072585;28;20303;-59
2022/06/11 10:07:05;;;;;;;4.13;1.50;;;26.50;59.80;;;;;;5071806;28;20237;-58
2022/06/11 10:09:34;;;;;;;5.93;1.40;;;26.50;59.20;;;;;;5072041;28;20627;-58
2022/06/11 10:12:15;;;;;;;3.65;1.63;;;26.60;58.70;;;;;;5071575;28;20205;-58
2022/06/11 10:14:48;;;;;;;3.00;1.70;;;26.70;58.20;;;;;;5072572;28;20209;-58
2022/06/11 10:17:21;;;;;;;3.00;1.40;;;26.90;58.30;;;;;;5072181;28;20229;-59
2022/06/11 10:19:54;;;;;;;2.70;1.30;;;27.20;58.20;;;;;;5072303;28;20212;-58
2022/06/11 10:22:27;;;;;;;2.97;1.45;;;27.40;58.00;;;;;;5071604;28;20205;-58
2022/06/11 10:25:14;;;;;;;3.13;1.38;;;27.60;57.60;;;;;;5073401;28;20213;-58
2022/06/11 10:27:46;;;;;;;3.67;1.45;;;27.60;57.10;;;;;;5075855;28;20207;-59
2022/06/11 10:30:23;;;;;;;3.83;1.63;;;27.50;57.40;;;;;;5075773;28;20215;-59
2022/06/11 10:32:52;;;;;;;3.38;1.33;;;27.30;57.10;;;;;;5075340;28;20208;-59
2022/06/11 10:35:23;;;;;;;3.05;1.50;;;27.10;56.70;;;;;;5075258;28;20274;-58
2022/06/11 10:37:57;;;;;;;2.45;1.60;;;27.00;56.70;;;;;;5075751;28;20212;-59
2022/06/11 10:40:27;;;;;;;5.30;1.60;;;26.90;57.30;;;;;;5075666;28;20225;-58
2022/06/11 10:43:01;;;;;;;5.40;1.52;;;27.10;56.70;;;;;;5075051;28;20282;-58
2022/06/11 10:45:28;;;;;;;3.35;1.38;;;27.20;56.50;;;;;;5074958;28;20228;-58
2022/06/11 10:47:57;;;;;;;4.78;1.52;;;27.30;56.90;;;;;;5074798;28;20212;-58
2022/06/11 10:50:29;;;;;;;3.63;1.15;;;27.30;56.70;;;;;;5075309;28;20205;-58
2022/06/11 10:53:02;;;;;;;3.75;1.50;;;27.20;56.40;;;;;;5074649;28;20208;-58
2022/06/11 10:55:35;;;;;;;4.03;1.58;;;27.10;57.00;;;;;;5074793;28;20703;-58
2022/06/11 10:58:09;;;;;;;2.58;1.30;;;27.10;56.70;;;;;;5074776;28;20793;-58
2022/06/11 11:00:42;;;;;;;2.30;1.30;;;27.20;56.30;;;;;;5074900;28;20593;-58
2022/06/11 11:03:16;;;;;;;3.03;1.60;;;27.30;55.90;;;;;;5074929;28;20216;-59
2022/06/11 11:05:53;;;;;;;3.80;1.50;;;27.40;56.60;;;;;;5074377;28;20545;-57
2022/06/11 11:08:20;;;;;;;6.22;1.70;;;27.50;56.10;;;;;;5075414;28;20215;-59
2022/06/11 11:10:52;;;;;;;3.63;1.50;;;27.70;56.00;;;;;;5074492;28;20534;-58
2022/06/11 11:13:24;;;;;;;4.60;1.52;;;27.80;55.40;;;;;;5074892;28;20557;-58
2022/06/11 11:16:01;;;;;;;2.80;1.27;;;28.00;55.20;;;;;;5074710;28;20231;-59
2022/06/11 11:18:35;;;;;;;3.85;1.33;;;28.00;55.00;;;;;;5074906;28;20208;-58
2022/06/11 11:21:04;;;;;;;4.82;1.45;;;27.90;56.10;;;;;;5074185;28;20208;-59
2022/06/11 11:23:38;;;;;;;5.15;1.48;;;27.80;55.60;;;;;;5074426;28;20207;-58
2022/06/11 11:26:12;;;;;;;3.83;1.65;;;27.50;56.50;;;;;;5074150;28;20220;-59
2022/06/11 11:28:46;;;;;;;7.18;1.70;;;27.40;57.40;;;;;;5074508;28;20227;-58
2022/06/11 11:31:20;;;;;;;5.88;1.65;;;27.30;57.20;;;;;;5074280;28;20217;-58
2022/06/11 11:34:00;;;;;;;6.20;2.50;;;27.50;57.30;;;;;;5074407;28;20235;-58
2022/06/11 11:36:30;;;;;;;3.97;1.55;;;27.60;56.30;;;;;;5073637;28;20231;-58
2022/06/11 11:39:16;;;;;;;5.05;1.77;;;27.80;56.30;;;;;;5074357;28;20216;-58
2022/06/11 11:41:51;;;;;;;4.18;1.65;;;28.00;55.60;;;;;;5071153;28;20209;-58
2022/06/11 11:44:19;;;;;;;4.18;1.92;;;28.20;55.50;;;;;;5074473;28;20211;-61
2022/06/11 11:46:49;;;;;;;3.00;1.80;;;28.30;56.60;;;;;;5074265;28;20232;-58
2022/06/11 11:49:21;;;;;;;4.97;1.48;;;28.40;56.20;;;;;;5073890;28;20208;-58
2022/06/11 11:51:49;;;;;;;4.18;1.70;;;28.30;55.80;;;;;;5073822;28;20262;-59
2022/06/11 11:54:19;;;;;;;3.50;1.40;;;28.20;56.20;;;;;;5073569;28;20216;-58
2022/06/11 11:56:48;;;;;;;4.10;1.63;;;28.20;56.20;;;;;;5073450;28;20770;-58
2022/06/11 11:59:18;;;;;;;5.85;1.52;;;28.00;56.40;;;;;;5073641;28;20215;-59
2022/06/11 12:01:46;;;;;;;4.47;1.48;;;28.10;56.50;;;;;;5073281;28;20215;-58
2022/06/11 12:04:18;;;;;;;3.50;1.50;;;28.20;56.40;;;;;;5073546;28;20205;-59
2022/06/11 12:06:46;;;;;;;3.85;1.48;;;28.30;56.80;;;;;;5073457;28;20403;-58
2022/06/11 12:09:25;;;;;;;3.47;1.50;;;28.30;56.70;;;;;;5074679;28;20209;-60
2022/06/11 12:12:10;;;;;;;3.45;1.45;;;28.10;57.20;;;;;;5074213;28;20211;-58
2022/06/11 12:14:39;;;;;;;2.97;1.48;;;28.10;56.50;;;;;;5074394;28;20205;-58
2022/06/11 12:17:17;;;;;;;5.32;1.58;;;28.20;56.30;;;;;;5073933;28;20224;-59
2022/06/11 12:19:49;;;;;;;5.95;1.58;;;28.20;56.30;;;;;;5073570;28;20212;-59
2022/06/11 12:22:25;;;;;;;5.05;1.52;;;28.20;56.40;;;;;;5072963;28;20209;-59
2022/06/11 12:24:55;;;;;;;3.22;1.75;;;28.00;56.60;;;;;;5072936;28;20287;-58
2022/06/11 12:27:28;;;;;;;3.28;1.70;;;28.00;58.00;;;;;;5072679;28;20256;-58
2022/06/11 12:30:01;;;;;;;4.05;1.65;;;28.00;57.00;;;;;;5072780;28;20208;-58
2022/06/11 12:32:28;;;;;;;3.78;1.40;;;28.10;57.20;;;;;;5072531;28;20703;-60
2022/06/11 12:34:56;;;;;;;2.15;1.45;;;28.00;56.90;;;;;;5073000;28;20215;-59
2022/06/11 12:37:37;;;;;;;3.75;1.55;;;28.00;57.40;;;;;;5072822;28;20229;-59
2022/06/11 12:40:14;;;;;;;6.78;1.95;;;28.10;57.00;;;;;;5073025;28;20258;-59
2022/06/11 12:42:45;;;;;;;4.10;1.88;;;28.20;57.10;;;;;;5072150;28;20581;-59
2022/06/11 12:45:22;;;;;;;6.10;1.52;;;28.30;56.60;;;;;;5072567;28;20216;-59
2022/06/11 12:48:05;;;;;;;2.42;1.40;;;28.30;56.40;;;;;;5071524;28;20196;-59
2022/06/11 12:50:45;;;;;;;3.63;1.63;;;28.40;56.50;;;;;;5072301;28;20718;-59
2022/06/11 12:53:22;;;;;;;3.67;1.70;;;28.50;55.70;;;;;;5072274;28;20204;-59
2022/06/11 12:56:05;;;;;;;4.22;1.50;;;28.60;56.00;;;;;;5072317;28;20228;-59
2022/06/11 12:58:49;;;;;;;4.10;1.67;;;28.70;55.60;;;;;;5072461;28;20676;-59
2022/06/11 13:01:23;;;;;;;3.25;1.80;;;28.70;55.80;;;;;;5072504;28;20213;-58
2022/06/11 13:04:27;;;;;;;3.65;1.40;;;28.70;56.00;;;;;;5072497;28;20215;-59
2022/06/11 13:07:04;;;;;;;3.38;1.50;;;28.90;56.10;;;;;;5071870;28;20235;-59
2022/06/11 13:09:48;;;;;;;2.83;1.40;;;28.90;55.90;;;;;;5072287;28;20475;-59